createdAt,value
2018-10-16T00:00:06.432Z,20.48
2018-10-16T00:00:32.569Z,20.5
2018-10-16T00:00:58.706Z,20.43
2018-10-16T00:01:24.870Z,20.41
2018-10-16T00:01:51.019Z,20.4
2018-10-16T00:02:17.199Z,20.44
2018-10-16T00:02:43.364Z,20.44
2018-10-16T00:03:09.662Z,20.4
2018-10-16T00:03:35.789Z,20.4
2018-10-16T00:04:02.047Z,20.51
2018-10-16T00:04:28.223Z,20.47
2018-10-16T00:04:54.352Z,20.44
2018-10-16T00:05:20.526Z,20.37
2018-10-16T00:05:46.671Z,20.34
2018-10-16T00:06:12.824Z,20.47
2018-10-16T00:06:38.957Z,20.44
2018-10-16T00:07:05.098Z,20.41
2018-10-16T00:07:31.228Z,20.4
2018-10-16T00:07:57.364Z,20.59
2018-10-16T00:08:23.501Z,20.56
2018-10-16T00:08:49.664Z,20.44
2018-10-16T00:09:15.816Z,20.44
2018-10-16T00:09:41.970Z,20.48
2018-10-16T00:10:08.107Z,20.41
2018-10-16T00:10:34.253Z,20.5
2018-10-16T00:11:00.371Z,20.41
2018-10-16T00:11:26.510Z,20.51
2018-10-16T00:11:52.657Z,20.48
2018-10-16T00:12:18.798Z,20.4
2018-10-16T00:12:44.929Z,20.43
2018-10-16T00:13:11.067Z,20.4
2018-10-16T00:13:37.223Z,20.4
2018-10-16T00:14:03.359Z,20.4
2018-10-16T00:14:29.518Z,20.39
2018-10-16T00:14:55.673Z,20.32
2018-10-16T00:15:21.834Z,20.47
2018-10-16T00:15:47.964Z,20.43
2018-10-16T00:16:14.128Z,20.5
2018-10-16T00:16:40.289Z,20.5
2018-10-16T00:17:06.446Z,20.44
2018-10-16T00:17:32.582Z,20.5
2018-10-16T00:17:58.716Z,20.47
2018-10-16T00:18:24.861Z,20.43
2018-10-16T00:18:51.002Z,20.41
2018-10-16T00:19:17.131Z,20.48
2018-10-16T00:19:43.267Z,20.41
2018-10-16T00:20:09.431Z,20.5
2018-10-16T00:20:35.587Z,20.48
2018-10-16T00:21:01.725Z,20.48
2018-10-16T00:21:27.860Z,20.5
2018-10-16T00:21:54.016Z,20.43
2018-10-16T00:22:20.148Z,20.51
2018-10-16T00:22:46.286Z,20.5
2018-10-16T00:23:12.415Z,20.48
2018-10-16T00:23:38.553Z,20.43
2018-10-16T00:24:04.689Z,20.43
2018-10-16T00:24:30.822Z,20.44
2018-10-16T00:24:56.955Z,20.51
2018-10-16T00:25:23.093Z,20.44
2018-10-16T00:25:49.228Z,20.43
2018-10-16T00:26:15.390Z,20.41
2018-10-16T00:26:41.558Z,20.47
2018-10-16T00:27:07.697Z,20.41
2018-10-16T00:27:33.829Z,20.34
2018-10-16T00:27:59.960Z,20.19
2018-10-16T00:28:26.097Z,20.13
2018-10-16T00:28:52.238Z,20.14
2018-10-16T00:29:18.367Z,20.1
2018-10-16T00:29:44.495Z,20
2018-10-16T00:30:10.629Z,20.06
2018-10-16T00:30:36.769Z,20.04
2018-10-16T00:31:02.905Z,20.11
2018-10-16T00:31:29.040Z,20.09
2018-10-16T00:31:55.197Z,20.21
2018-10-16T00:32:21.319Z,20.1
2018-10-16T00:32:47.591Z,20.09
2018-10-16T00:33:13.605Z,20.07
2018-10-16T00:33:39.789Z,20.03
2018-10-16T00:34:05.920Z,20.02
2018-10-16T00:34:32.103Z,20.04
2018-10-16T00:34:58.273Z,20.09
2018-10-16T00:35:24.407Z,20.09
2018-10-16T00:35:50.565Z,20
2018-10-16T00:36:16.725Z,19.92
2018-10-16T00:36:42.887Z,20
2018-10-16T00:37:09.042Z,19.92
2018-10-16T00:37:35.223Z,19.89
2018-10-16T00:38:01.357Z,19.81
2018-10-16T00:38:27.494Z,19.81
2018-10-16T00:38:53.676Z,19.77
2018-10-16T00:39:19.805Z,19.79
2018-10-16T00:39:45.941Z,19.67
2018-10-16T00:40:12.130Z,19.7
2018-10-16T00:40:38.291Z,19.66
2018-10-16T00:41:04.448Z,19.77
2018-10-16T00:41:30.578Z,19.64
2018-10-16T00:41:56.718Z,19.64
2018-10-16T00:42:22.870Z,19.66
2018-10-16T00:42:49.002Z,19.71
2018-10-16T00:43:15.141Z,19.67
2018-10-16T00:43:41.278Z,19.69
2018-10-16T00:44:07.406Z,19.66
2018-10-16T00:44:33.543Z,19.71
2018-10-16T00:44:59.675Z,19.69
2018-10-16T00:45:25.807Z,19.69
2018-10-16T00:45:51.947Z,19.81
2018-10-16T00:46:18.146Z,19.85
2018-10-16T00:46:44.242Z,19.81
2018-10-16T00:47:10.390Z,19.81
2018-10-16T00:47:36.524Z,19.73
2018-10-16T00:48:02.662Z,19.76
2018-10-16T00:48:28.818Z,19.71
2018-10-16T00:48:54.948Z,19.7
2018-10-16T00:49:21.085Z,19.77
2018-10-16T00:49:47.219Z,19.74
2018-10-16T00:50:13.409Z,19.66
2018-10-16T00:50:39.546Z,19.64
2018-10-16T00:51:05.702Z,19.76
2018-10-16T00:51:31.840Z,19.85
2018-10-16T00:51:57.980Z,19.79
2018-10-16T00:52:24.113Z,19.76
2018-10-16T00:52:50.277Z,19.7
2018-10-16T00:53:16.407Z,19.67
2018-10-16T00:53:42.547Z,19.67
2018-10-16T00:54:08.669Z,19.7
2018-10-16T00:54:34.833Z,19.62
2018-10-16T00:55:01.081Z,19.67
2018-10-16T00:55:27.128Z,19.69
2018-10-16T00:55:53.281Z,19.66
2018-10-16T00:56:19.416Z,19.71
2018-10-16T00:56:45.577Z,19.66
2018-10-16T00:57:11.716Z,19.74
2018-10-16T00:57:37.875Z,19.74
2018-10-16T00:58:04.013Z,19.77
2018-10-16T00:58:30.160Z,19.79
2018-10-16T00:58:56.285Z,19.84
2018-10-16T00:59:22.424Z,19.94
2018-10-16T00:59:48.576Z,19.84
2018-10-16T01:00:14.713Z,19.99
2018-10-16T01:00:40.843Z,19.94
2018-10-16T01:01:06.987Z,19.92
2018-10-16T01:01:33.114Z,19.96
2018-10-16T01:01:59.288Z,19.96
2018-10-16T01:02:25.425Z,19.95
2018-10-16T01:02:51.562Z,19.88
2018-10-16T01:03:17.721Z,19.86
2018-10-16T01:03:43.861Z,19.92
2018-10-16T01:04:09.992Z,19.89
2018-10-16T01:04:36.126Z,19.94
2018-10-16T01:05:02.267Z,19.89
2018-10-16T01:05:28.421Z,19.95
2018-10-16T01:05:54.556Z,19.95
2018-10-16T01:06:20.696Z,19.94
2018-10-16T01:06:46.834Z,19.99
2018-10-16T01:07:12.963Z,20
2018-10-16T01:07:39.096Z,20.03
2018-10-16T01:08:05.237Z,19.95
2018-10-16T01:08:31.367Z,19.99
2018-10-16T01:08:57.502Z,19.96
2018-10-16T01:09:23.654Z,19.94
2018-10-16T01:09:49.789Z,20.02
2018-10-16T01:10:15.924Z,20
2018-10-16T01:10:42.054Z,19.92
2018-10-16T01:11:08.193Z,19.99
2018-10-16T01:11:34.323Z,19.88
2018-10-16T01:12:00.463Z,19.96
2018-10-16T01:12:26.600Z,20.03
2018-10-16T01:12:52.735Z,19.94
2018-10-16T01:13:18.948Z,20.04
2018-10-16T01:13:45.047Z,20.03
2018-10-16T01:14:11.187Z,20.02
2018-10-16T01:14:37.353Z,20.06
2018-10-16T01:15:03.481Z,20.11
2018-10-16T01:15:29.616Z,20.1
2018-10-16T01:15:55.752Z,19.99
2018-10-16T01:16:21.907Z,19.99
2018-10-16T01:16:48.050Z,19.94
2018-10-16T01:17:14.216Z,19.94
2018-10-16T01:17:40.368Z,19.92
2018-10-16T01:18:06.504Z,19.94
2018-10-16T01:18:32.637Z,19.96
2018-10-16T01:18:58.774Z,19.94
2018-10-16T01:19:24.941Z,20
2018-10-16T01:19:51.073Z,19.99
2018-10-16T01:20:17.211Z,20.06
2018-10-16T01:20:43.343Z,20.06
2018-10-16T01:21:09.482Z,20.02
2018-10-16T01:21:35.610Z,20.03
2018-10-16T01:22:01.742Z,20.02
2018-10-16T01:22:27.887Z,20.04
2018-10-16T01:22:54.019Z,20.04
2018-10-16T01:23:20.156Z,20.06
2018-10-16T01:23:46.292Z,20.04
2018-10-16T01:24:12.449Z,20.09
2018-10-16T01:24:38.600Z,20.04
2018-10-16T01:25:04.766Z,20.11
2018-10-16T01:25:30.927Z,20.11
2018-10-16T01:25:57.057Z,20.06
2018-10-16T01:26:23.198Z,20.14
2018-10-16T01:26:49.327Z,20.11
2018-10-16T01:27:15.486Z,20.07
2018-10-16T01:27:41.661Z,20.1
2018-10-16T01:28:07.815Z,20.07
2018-10-16T01:28:33.947Z,20.09
2018-10-16T01:29:00.083Z,20.13
2018-10-16T01:29:26.216Z,20.06
2018-10-16T01:29:52.349Z,20.13
2018-10-16T01:30:18.489Z,20.16
2018-10-16T01:30:44.618Z,19.96
2018-10-16T01:31:10.760Z,19.99
2018-10-16T01:31:36.894Z,20.07
2018-10-16T01:32:03.027Z,19.99
2018-10-16T01:32:29.162Z,20.07
2018-10-16T01:32:55.324Z,20.13
2018-10-16T01:33:21.506Z,20.1
2018-10-16T01:33:47.665Z,20.14
2018-10-16T01:34:13.819Z,20.19
2018-10-16T01:34:39.958Z,20.1
2018-10-16T01:35:06.090Z,20.09
2018-10-16T01:35:32.233Z,20.19
2018-10-16T01:35:58.361Z,20.21
2018-10-16T01:36:24.505Z,20.18
2018-10-16T01:36:50.642Z,20.11
2018-10-16T01:37:16.783Z,20.18
2018-10-16T01:37:42.923Z,20.1
2018-10-16T01:38:09.085Z,20.18
2018-10-16T01:38:35.223Z,20.14
2018-10-16T01:39:01.384Z,20.21
2018-10-16T01:39:27.513Z,20.25
2018-10-16T01:39:53.651Z,20.22
2018-10-16T01:40:19.783Z,20.18
2018-10-16T01:40:45.939Z,20.25
2018-10-16T01:41:12.079Z,20.18
2018-10-16T01:41:38.213Z,20.19
2018-10-16T01:42:04.356Z,20.14
2018-10-16T01:42:30.490Z,20.14
2018-10-16T01:42:56.649Z,20.19
2018-10-16T01:43:22.780Z,20.22
2018-10-16T01:43:48.918Z,20.22
2018-10-16T01:44:15.058Z,20.21
2018-10-16T01:44:41.237Z,20.31
2018-10-16T01:45:07.404Z,20.19
2018-10-16T01:45:33.544Z,20.28
2018-10-16T01:45:59.671Z,20.31
2018-10-16T01:46:25.813Z,20.31
2018-10-16T01:46:51.947Z,20.28
2018-10-16T01:47:18.080Z,20.34
2018-10-16T01:47:44.238Z,20.44
2018-10-16T01:48:10.369Z,20.37
2018-10-16T01:48:36.502Z,20.26
2018-10-16T01:49:02.660Z,20.34
2018-10-16T01:49:28.820Z,20.32
2018-10-16T01:49:54.960Z,20.34
2018-10-16T01:50:21.114Z,20.44
2018-10-16T01:50:47.273Z,20.34
2018-10-16T01:51:13.407Z,20.28
2018-10-16T01:51:39.543Z,20.32
2018-10-16T01:52:05.692Z,20.31
2018-10-16T01:52:31.852Z,20.36
2018-10-16T01:52:57.986Z,20.37
2018-10-16T01:53:24.117Z,20.34
2018-10-16T01:53:50.280Z,20.29
2018-10-16T01:54:16.441Z,20.29
2018-10-16T01:54:42.598Z,20.44
2018-10-16T01:55:08.726Z,20.47
2018-10-16T01:55:34.862Z,20.51
2018-10-16T01:56:00.995Z,20.36
2018-10-16T01:56:27.132Z,20.34
2018-10-16T01:56:53.295Z,20.4
2018-10-16T01:57:19.452Z,20.36
2018-10-16T01:57:45.578Z,20.44
2018-10-16T01:58:11.714Z,20.4
2018-10-16T01:58:37.859Z,20.47
2018-10-16T01:59:03.984Z,20.44
2018-10-16T01:59:30.116Z,20.43
2018-10-16T01:59:56.260Z,20.44
2018-10-16T02:00:22.393Z,20.4
2018-10-16T02:00:48.529Z,20.4
2018-10-16T02:01:14.681Z,20.43
2018-10-16T02:01:40.834Z,20.5
2018-10-16T02:02:06.975Z,20.48
2018-10-16T02:02:33.238Z,20.48
2018-10-16T02:02:59.268Z,20.44
2018-10-16T02:03:25.402Z,20.41
2018-10-16T02:03:51.584Z,20.41
2018-10-16T02:04:17.711Z,20.48
2018-10-16T02:04:43.851Z,20.43
2018-10-16T02:05:10.009Z,20.39
2018-10-16T02:05:36.191Z,20.48
2018-10-16T02:06:02.286Z,20.47
2018-10-16T02:06:28.424Z,20.5
2018-10-16T02:06:54.558Z,20.4
2018-10-16T02:07:20.690Z,20.41
2018-10-16T02:07:46.850Z,20.36
2018-10-16T02:08:12.993Z,20.4
2018-10-16T02:08:39.131Z,20.47
2018-10-16T02:09:05.266Z,20.44
2018-10-16T02:09:31.401Z,20.48
2018-10-16T02:09:57.562Z,20.44
2018-10-16T02:10:23.701Z,20.41
2018-10-16T02:10:49.841Z,20.4
2018-10-16T02:11:15.976Z,20.37
2018-10-16T02:11:42.113Z,20.4
2018-10-16T02:12:08.266Z,20.47
2018-10-16T02:12:34.401Z,20.4
2018-10-16T02:13:00.536Z,20.41
2018-10-16T02:13:26.694Z,20.41
2018-10-16T02:13:52.831Z,20.43
2018-10-16T02:14:18.970Z,20.31
2018-10-16T02:14:45.122Z,20.41
2018-10-16T02:15:11.289Z,20.37
2018-10-16T02:15:37.442Z,20.31
2018-10-16T02:16:03.572Z,20.48
2018-10-16T02:16:29.710Z,20.41
2018-10-16T02:16:55.860Z,20.34
2018-10-16T02:17:21.993Z,20.48
2018-10-16T02:17:48.127Z,20.47
2018-10-16T02:18:14.264Z,20.5
2018-10-16T02:18:40.417Z,20.44
2018-10-16T02:19:06.553Z,20.58
2018-10-16T02:19:32.706Z,20.44
2018-10-16T02:19:58.840Z,20.41
2018-10-16T02:20:25.001Z,20.4
2018-10-16T02:20:51.141Z,20.4
2018-10-16T02:21:17.269Z,20.43
2018-10-16T02:21:43.424Z,20.34
2018-10-16T02:22:09.567Z,20.44
2018-10-16T02:22:35.720Z,20.37
2018-10-16T02:23:01.858Z,20.43
2018-10-16T02:23:27.993Z,20.28
2018-10-16T02:23:54.129Z,20.47
2018-10-16T02:24:20.280Z,20.39
2018-10-16T02:24:46.444Z,20.44
2018-10-16T02:25:12.574Z,20.43
2018-10-16T02:25:38.720Z,20.37
2018-10-16T02:26:04.869Z,20.41
2018-10-16T02:26:31.004Z,20.47
2018-10-16T02:26:57.142Z,20.44
2018-10-16T02:27:23.279Z,20.51
2018-10-16T02:27:49.440Z,20.4
2018-10-16T02:28:15.572Z,20.37
2018-10-16T02:28:41.709Z,20.44
2018-10-16T02:29:07.889Z,20.36
2018-10-16T02:29:34.026Z,20.44
2018-10-16T02:30:00.154Z,20.39
2018-10-16T02:30:26.343Z,20.31
2018-10-16T02:30:52.500Z,20.29
2018-10-16T02:31:18.690Z,20.39
2018-10-16T02:31:44.875Z,20.39
2018-10-16T02:32:11.051Z,20.41
2018-10-16T02:32:37.216Z,20.31
2018-10-16T02:33:03.367Z,20.28
2018-10-16T02:33:29.497Z,20.29
2018-10-16T02:33:55.664Z,20.29
2018-10-16T02:34:21.805Z,20.28
2018-10-16T02:34:47.936Z,20.31
2018-10-16T02:35:14.103Z,20.28
2018-10-16T02:35:40.256Z,20.28
2018-10-16T02:36:06.401Z,20.28
2018-10-16T02:36:32.601Z,20.29
2018-10-16T02:36:58.778Z,20.36
2018-10-16T02:37:24.917Z,20.28
2018-10-16T02:37:51.072Z,20.41
2018-10-16T02:38:17.230Z,20.44
2018-10-16T02:38:43.365Z,20.29
2018-10-16T02:39:09.498Z,20.32
2018-10-16T02:39:35.632Z,20.44
2018-10-16T02:40:01.787Z,20.43
2018-10-16T02:40:27.943Z,20.4
2018-10-16T02:40:54.079Z,20.39
2018-10-16T02:41:20.276Z,20.43
2018-10-16T02:41:46.455Z,20.44
2018-10-16T02:42:12.617Z,20.44
2018-10-16T02:42:38.746Z,20.44
2018-10-16T02:43:04.885Z,20.47
2018-10-16T02:43:31.009Z,20.43
2018-10-16T02:43:57.185Z,20.5
2018-10-16T02:44:23.331Z,20.47
2018-10-16T02:44:49.512Z,20.48
2018-10-16T02:45:15.644Z,20.47
2018-10-16T02:45:41.782Z,20.44
2018-10-16T02:46:07.943Z,20.47
2018-10-16T02:46:34.101Z,20.51
2018-10-16T02:47:00.271Z,20.43
2018-10-16T02:47:26.452Z,20.6
2018-10-16T02:47:52.579Z,20.62
2018-10-16T02:48:18.742Z,20.62
2018-10-16T02:48:44.911Z,20.5
2018-10-16T02:49:11.068Z,20.34
2018-10-16T02:49:37.211Z,20.41
2018-10-16T02:50:03.409Z,20.39
2018-10-16T02:50:29.550Z,20.5
2018-10-16T02:50:55.697Z,20.4
2018-10-16T02:51:21.860Z,20.47
2018-10-16T02:51:48.012Z,20.41
2018-10-16T02:52:14.170Z,20.36
2018-10-16T02:52:40.327Z,20.4
2018-10-16T02:53:06.486Z,20.47
2018-10-16T02:53:32.643Z,20.41
2018-10-16T02:53:58.775Z,20.44
2018-10-16T02:54:24.909Z,20.5
2018-10-16T02:54:51.068Z,20.6
2018-10-16T02:55:17.222Z,20.67
2018-10-16T02:55:43.406Z,20.58
2018-10-16T02:56:09.543Z,20.63
2018-10-16T02:56:35.674Z,20.69
2018-10-16T02:57:01.813Z,20.63
2018-10-16T02:57:27.945Z,20.66
2018-10-16T02:57:54.075Z,20.59
2018-10-16T02:58:20.229Z,20.6
2018-10-16T02:58:46.360Z,20.69
2018-10-16T02:59:12.525Z,20.62
2018-10-16T02:59:38.675Z,20.66
2018-10-16T03:00:04.810Z,20.62
2018-10-16T03:00:30.945Z,20.63
2018-10-16T03:00:57.120Z,20.63
2018-10-16T03:01:23.252Z,20.58
2018-10-16T03:01:49.384Z,20.63
2018-10-16T03:02:15.567Z,20.6
2018-10-16T03:02:41.726Z,20.58
2018-10-16T03:03:07.886Z,20.6
2018-10-16T03:03:34.045Z,20.58
2018-10-16T03:04:00.183Z,20.6
2018-10-16T03:04:26.364Z,20.66
2018-10-16T03:04:52.498Z,20.63
2018-10-16T03:05:18.680Z,20.59
2018-10-16T03:05:44.842Z,20.66
2018-10-16T03:06:10.981Z,20.59
2018-10-16T03:06:37.146Z,20.66
2018-10-16T03:07:03.300Z,20.69
2018-10-16T03:07:29.462Z,20.62
2018-10-16T03:07:55.595Z,20.47
2018-10-16T03:08:21.751Z,20.41
2018-10-16T03:08:47.912Z,20.58
2018-10-16T03:09:14.091Z,20.51
2018-10-16T03:09:40.223Z,20.43
2018-10-16T03:10:06.364Z,20.47
2018-10-16T03:10:32.515Z,20.58
2018-10-16T03:10:58.656Z,20.6
2018-10-16T03:11:24.790Z,20.58
2018-10-16T03:11:51.002Z,20.58
2018-10-16T03:12:17.182Z,20.65
2018-10-16T03:12:43.337Z,20.63
2018-10-16T03:13:09.475Z,20.56
2018-10-16T03:13:35.628Z,20.62
2018-10-16T03:14:01.783Z,20.65
2018-10-16T03:14:27.933Z,20.62
2018-10-16T03:14:54.072Z,20.62
2018-10-16T03:15:20.206Z,20.41
2018-10-16T03:15:46.342Z,20.48
2018-10-16T03:16:12.510Z,20.48
2018-10-16T03:16:38.645Z,20.41
2018-10-16T03:17:04.781Z,20.58
2018-10-16T03:17:30.960Z,20.44
2018-10-16T03:17:57.092Z,20.47
2018-10-16T03:18:23.249Z,20.48
2018-10-16T03:18:49.411Z,20.5
2018-10-16T03:19:15.564Z,20.41
2018-10-16T03:19:41.697Z,20.44
2018-10-16T03:20:07.837Z,20.44
2018-10-16T03:20:34.047Z,20.41
2018-10-16T03:21:00.166Z,20.43
2018-10-16T03:21:26.309Z,20.44
2018-10-16T03:21:52.430Z,20.29
2018-10-16T03:22:18.567Z,20.36
2018-10-16T03:22:44.726Z,20.34
2018-10-16T03:23:10.862Z,20.37
2018-10-16T03:23:36.999Z,20.28
2018-10-16T03:24:03.131Z,20.28
2018-10-16T03:24:29.267Z,20.32
2018-10-16T03:24:55.399Z,20.28
2018-10-16T03:25:21.536Z,20.32
2018-10-16T03:25:47.672Z,20.37
2018-10-16T03:26:13.809Z,20.43
2018-10-16T03:26:39.940Z,20.44
2018-10-16T03:27:06.079Z,20.43
2018-10-16T03:27:32.207Z,20.31
2018-10-16T03:27:58.346Z,20.41
2018-10-16T03:28:24.498Z,20.41
2018-10-16T03:28:50.639Z,20.34
2018-10-16T03:29:16.779Z,20.47
2018-10-16T03:29:42.910Z,20.41
2018-10-16T03:30:09.039Z,20.47
2018-10-16T03:30:35.211Z,20.39
2018-10-16T03:31:01.393Z,20.44
2018-10-16T03:31:27.576Z,20.34
2018-10-16T03:31:53.751Z,20.44
2018-10-16T03:32:19.931Z,20.47
2018-10-16T03:32:46.131Z,20.41
2018-10-16T03:33:12.264Z,20.44
2018-10-16T03:33:38.393Z,20.47
2018-10-16T03:34:04.528Z,20.4
2018-10-16T03:34:30.653Z,20.41
2018-10-16T03:34:56.813Z,20.51
2018-10-16T03:35:22.969Z,20.44
2018-10-16T03:35:49.110Z,20.51
2018-10-16T03:36:15.249Z,20.43
2018-10-16T03:36:41.381Z,20.31
2018-10-16T03:37:07.515Z,20.36
2018-10-16T03:37:33.646Z,20.43
2018-10-16T03:37:59.784Z,20.48
2018-10-16T03:38:25.917Z,20.36
2018-10-16T03:38:52.059Z,20.36
2018-10-16T03:39:18.211Z,20.41
2018-10-16T03:39:44.350Z,20.37
2018-10-16T03:40:10.562Z,20.5
2018-10-16T03:40:36.718Z,20.4
2018-10-16T03:41:02.887Z,20.4
2018-10-16T03:41:29.069Z,20.44
2018-10-16T03:41:55.204Z,20.43
2018-10-16T03:42:21.339Z,20.29
2018-10-16T03:42:47.493Z,20.43
2018-10-16T03:43:13.636Z,20.44
2018-10-16T03:43:39.792Z,20.34
2018-10-16T03:44:05.943Z,20.39
2018-10-16T03:44:32.077Z,20.4
2018-10-16T03:44:58.209Z,20.47
2018-10-16T03:45:24.343Z,20.47
2018-10-16T03:45:50.507Z,20.44
2018-10-16T03:46:16.642Z,20.29
2018-10-16T03:46:42.803Z,20.31
2018-10-16T03:47:08.943Z,20.4
2018-10-16T03:47:35.124Z,20.37
2018-10-16T03:48:01.237Z,20.39
2018-10-16T03:48:27.397Z,20.43
2018-10-16T03:48:53.532Z,20.4
2018-10-16T03:49:19.664Z,20.41
2018-10-16T03:49:45.806Z,20.4
2018-10-16T03:50:11.948Z,20.31
2018-10-16T03:50:38.077Z,20.32
2018-10-16T03:51:04.216Z,20.31
2018-10-16T03:51:30.374Z,20.24
2018-10-16T03:51:56.559Z,20.19
2018-10-16T03:52:22.711Z,20.14
2018-10-16T03:52:48.927Z,20.07
2018-10-16T03:53:15.049Z,20.09
2018-10-16T03:53:41.189Z,20.11
2018-10-16T03:54:07.362Z,20.04
2018-10-16T03:54:33.500Z,19.95
2018-10-16T03:54:59.631Z,20
2018-10-16T03:55:25.773Z,19.91
2018-10-16T03:55:51.904Z,19.82
2018-10-16T03:56:18.057Z,19.85
2018-10-16T03:56:44.197Z,19.74
2018-10-16T03:57:10.332Z,19.77
2018-10-16T03:57:36.480Z,19.71
2018-10-16T03:58:02.643Z,19.63
2018-10-16T03:58:28.773Z,19.58
2018-10-16T03:58:54.904Z,19.52
2018-10-16T03:59:21.043Z,19.56
2018-10-16T03:59:47.175Z,19.49
2018-10-16T04:00:13.314Z,19.54
2018-10-16T04:00:39.475Z,19.51
2018-10-16T04:01:05.608Z,19.41
2018-10-16T04:01:31.760Z,19.49
2018-10-16T04:01:57.914Z,19.54
2018-10-16T04:02:24.077Z,19.56
2018-10-16T04:02:50.202Z,19.52
2018-10-16T04:03:16.339Z,19.49
2018-10-16T04:03:42.500Z,19.45
2018-10-16T04:04:08.682Z,19.58
2018-10-16T04:04:34.830Z,19.62
2018-10-16T04:05:00.976Z,19.58
2018-10-16T04:05:27.159Z,19.66
2018-10-16T04:05:53.316Z,19.59
2018-10-16T04:06:19.469Z,19.7
2018-10-16T04:06:45.679Z,19.66
2018-10-16T04:07:11.802Z,19.73
2018-10-16T04:07:37.937Z,19.66
2018-10-16T04:08:04.101Z,19.67
2018-10-16T04:08:30.224Z,19.71
2018-10-16T04:08:56.357Z,19.62
2018-10-16T04:09:22.516Z,19.56
2018-10-16T04:09:48.647Z,19.64
2018-10-16T04:10:14.803Z,19.49
2018-10-16T04:10:40.938Z,19.58
2018-10-16T04:11:07.071Z,19.52
2018-10-16T04:11:33.199Z,19.55
2018-10-16T04:11:59.339Z,19.51
2018-10-16T04:12:25.474Z,19.51
2018-10-16T04:12:51.631Z,19.54
2018-10-16T04:13:17.765Z,19.52
2018-10-16T04:13:43.906Z,19.39
2018-10-16T04:14:10.160Z,19.4
2018-10-16T04:14:36.230Z,19.37
2018-10-16T04:15:02.364Z,19.33
2018-10-16T04:15:28.504Z,19.33
2018-10-16T04:15:54.637Z,19.36
2018-10-16T04:16:20.776Z,19.36
2018-10-16T04:16:46.905Z,19.34
2018-10-16T04:17:13.051Z,19.26
2018-10-16T04:17:39.180Z,19.31
2018-10-16T04:18:05.314Z,19.36
2018-10-16T04:18:31.449Z,19.4
2018-10-16T04:18:57.586Z,19.3
2018-10-16T04:19:23.740Z,19.37
2018-10-16T04:19:49.870Z,19.39
2018-10-16T04:20:16.010Z,19.34
2018-10-16T04:20:42.181Z,19.4
2018-10-16T04:21:08.323Z,19.39
2018-10-16T04:21:34.458Z,19.51
2018-10-16T04:22:00.591Z,19.44
2018-10-16T04:22:26.763Z,19.52
2018-10-16T04:22:52.998Z,19.49
2018-10-16T04:23:19.085Z,19.47
2018-10-16T04:23:45.214Z,19.48
2018-10-16T04:24:11.358Z,19.52
2018-10-16T04:24:37.485Z,19.56
2018-10-16T04:25:03.612Z,19.59
2018-10-16T04:25:29.775Z,19.62
2018-10-16T04:25:55.908Z,19.54
2018-10-16T04:26:22.048Z,19.52
2018-10-16T04:26:48.179Z,19.48
2018-10-16T04:27:14.329Z,19.64
2018-10-16T04:27:40.467Z,19.59
2018-10-16T04:28:06.620Z,19.59
2018-10-16T04:28:32.776Z,19.59
2018-10-16T04:28:58.961Z,19.59
2018-10-16T04:29:25.062Z,19.59
2018-10-16T04:29:51.193Z,19.58
2018-10-16T04:30:17.344Z,19.59
2018-10-16T04:30:43.478Z,19.59
2018-10-16T04:31:09.639Z,19.63
2018-10-16T04:31:35.796Z,19.66
2018-10-16T04:32:01.934Z,19.62
2018-10-16T04:32:28.064Z,19.64
2018-10-16T04:32:54.201Z,19.67
2018-10-16T04:33:20.338Z,19.67
2018-10-16T04:33:46.492Z,19.66
2018-10-16T04:34:12.625Z,19.71
2018-10-16T04:34:38.776Z,19.73
2018-10-16T04:35:04.915Z,19.59
2018-10-16T04:35:31.052Z,19.74
2018-10-16T04:35:57.203Z,19.66
2018-10-16T04:36:23.344Z,19.64
2018-10-16T04:36:49.474Z,19.66
2018-10-16T04:37:15.618Z,19.64
2018-10-16T04:37:41.745Z,19.64
2018-10-16T04:38:07.879Z,19.64
2018-10-16T04:38:34.013Z,19.64
2018-10-16T04:39:00.149Z,19.74
2018-10-16T04:39:26.310Z,19.66
2018-10-16T04:39:52.469Z,19.69
2018-10-16T04:40:18.609Z,19.64
2018-10-16T04:40:44.769Z,19.64
2018-10-16T04:41:10.900Z,19.71
2018-10-16T04:41:37.086Z,19.63
2018-10-16T04:42:03.177Z,19.71
2018-10-16T04:42:29.334Z,19.67
2018-10-16T04:42:55.493Z,19.67
2018-10-16T04:43:21.649Z,19.56
2018-10-16T04:43:47.922Z,19.58
2018-10-16T04:44:13.938Z,19.54
2018-10-16T04:44:40.074Z,19.49
2018-10-16T04:45:06.232Z,19.51
2018-10-16T04:45:32.387Z,19.48
2018-10-16T04:45:58.564Z,19.47
2018-10-16T04:46:24.673Z,19.51
2018-10-16T04:46:50.833Z,19.45
2018-10-16T04:47:16.943Z,19.51
2018-10-16T04:47:43.075Z,19.48
2018-10-16T04:48:09.210Z,19.39
2018-10-16T04:48:35.340Z,19.51
2018-10-16T04:49:01.492Z,19.4
2018-10-16T04:49:27.652Z,19.44
2018-10-16T04:49:53.835Z,19.33
2018-10-16T04:50:19.995Z,19.37
2018-10-16T04:50:46.128Z,19.4
2018-10-16T04:51:12.265Z,19.37
2018-10-16T04:51:38.399Z,19.4
2018-10-16T04:52:04.560Z,19.51
2018-10-16T04:52:30.724Z,19.45
2018-10-16T04:52:56.857Z,19.52
2018-10-16T04:53:22.996Z,19.49
2018-10-16T04:53:49.131Z,19.55
2018-10-16T04:54:15.282Z,19.52
2018-10-16T04:54:41.417Z,19.51
2018-10-16T04:55:07.589Z,19.39
2018-10-16T04:55:33.716Z,19.51
2018-10-16T04:55:59.846Z,19.45
2018-10-16T04:56:25.986Z,19.45
2018-10-16T04:56:52.119Z,19.51
2018-10-16T04:57:18.256Z,19.29
2018-10-16T04:57:44.387Z,19.26
2018-10-16T04:58:10.518Z,19.21
2018-10-16T04:58:36.656Z,19.14
2018-10-16T04:59:02.791Z,19.22
2018-10-16T04:59:28.924Z,19.33
2018-10-16T04:59:55.055Z,19.29
2018-10-16T05:00:21.218Z,19.29
2018-10-16T05:00:47.358Z,19.31
2018-10-16T05:01:13.512Z,19.36
2018-10-16T05:01:39.649Z,19.34
2018-10-16T05:02:05.804Z,19.33
2018-10-16T05:02:31.936Z,19.33
2018-10-16T05:02:58.077Z,19.33
2018-10-16T05:03:24.211Z,19.31
2018-10-16T05:03:50.344Z,19.36
2018-10-16T05:04:16.578Z,19.34
2018-10-16T05:04:42.657Z,19.33
2018-10-16T05:05:08.837Z,19.31
2018-10-16T05:05:34.973Z,19.34
2018-10-16T05:06:01.096Z,19.34
2018-10-16T05:06:27.233Z,19.34
2018-10-16T05:06:53.373Z,19.47
2018-10-16T05:07:19.555Z,19.4
2018-10-16T05:07:45.692Z,19.48
2018-10-16T05:08:11.826Z,19.51
2018-10-16T05:08:37.959Z,19.49
2018-10-16T05:09:04.099Z,19.47
2018-10-16T05:09:30.272Z,19.4
2018-10-16T05:09:56.425Z,19.45
2018-10-16T05:10:22.552Z,19.36
2018-10-16T05:10:48.686Z,19.31
2018-10-16T05:11:14.811Z,19.37
2018-10-16T05:11:40.972Z,19.41
2018-10-16T05:12:07.154Z,19.31
2018-10-16T05:12:33.315Z,19.31
2018-10-16T05:12:59.493Z,19.31
2018-10-16T05:13:25.602Z,19.41
2018-10-16T05:13:51.738Z,19.39
2018-10-16T05:14:17.896Z,19.34
2018-10-16T05:14:44.048Z,19.4
2018-10-16T05:15:10.193Z,19.39
2018-10-16T05:15:36.317Z,19.48
2018-10-16T05:16:02.445Z,19.47
2018-10-16T05:16:28.579Z,19.37
2018-10-16T05:16:54.744Z,19.44
2018-10-16T05:17:20.834Z,19.41
2018-10-16T05:17:46.967Z,19.4
2018-10-16T05:18:13.097Z,19.44
2018-10-16T05:18:39.230Z,19.41
2018-10-16T05:19:05.452Z,19.4
2018-10-16T05:19:31.518Z,19.44
2018-10-16T05:19:57.649Z,19.49
2018-10-16T05:20:23.783Z,19.49
2018-10-16T05:20:49.947Z,19.47
2018-10-16T05:21:16.078Z,19.49
2018-10-16T05:21:42.232Z,19.49
2018-10-16T05:22:08.360Z,19.31
2018-10-16T05:22:34.519Z,19.4
2018-10-16T05:23:00.652Z,19.34
2018-10-16T05:23:26.790Z,19.4
2018-10-16T05:23:52.947Z,19.39
2018-10-16T05:24:19.074Z,19.47
2018-10-16T05:24:45.239Z,19.31
2018-10-16T05:25:11.404Z,19.3
2018-10-16T05:25:37.540Z,19.31
2018-10-16T05:26:03.696Z,19.31
2018-10-16T05:26:29.832Z,19.33
2018-10-16T05:26:55.983Z,19.33
2018-10-16T05:27:22.120Z,19.34
2018-10-16T05:27:48.282Z,19.27
2018-10-16T05:28:14.412Z,19.34
2018-10-16T05:28:40.548Z,19.31
2018-10-16T05:29:06.686Z,19.31
2018-10-16T05:29:32.818Z,19.3
2018-10-16T05:29:58.951Z,19.29
2018-10-16T05:30:25.085Z,19.24
2018-10-16T05:30:51.226Z,19.26
2018-10-16T05:31:17.535Z,19.3
2018-10-16T05:31:43.498Z,19.34
2018-10-16T05:32:09.630Z,19.3
2018-10-16T05:32:35.767Z,19.34
2018-10-16T05:33:01.924Z,19.34
2018-10-16T05:33:28.080Z,19.29
2018-10-16T05:33:54.216Z,19.3
2018-10-16T05:34:20.348Z,19.34
2018-10-16T05:34:46.487Z,19.4
2018-10-16T05:35:12.621Z,19.49
2018-10-16T05:35:38.790Z,19.52
2018-10-16T05:36:04.927Z,19.48
2018-10-16T05:36:31.066Z,19.47
2018-10-16T05:36:57.224Z,19.56
2018-10-16T05:37:23.359Z,19.52
2018-10-16T05:37:49.488Z,19.59
2018-10-16T05:38:15.614Z,19.59